createdAt,value
2019-03-21T00:00:22.294Z,101092.61
2019-03-21T00:02:50.719Z,101092.52
2019-03-21T00:05:20.043Z,101089.83
2019-03-21T00:07:48.385Z,101083.97
2019-03-21T00:10:31.691Z,101081.45
2019-03-21T00:13:00.042Z,101092.22
2019-03-21T00:15:37.594Z,101092.09
2019-03-21T00:18:09.203Z,101086.56
2019-03-21T00:20:37.644Z,101084.76
2019-03-21T00:23:05.991Z,101089.39
2019-03-21T00:25:34.363Z,101091.66
2019-03-21T00:28:02.720Z,101094.66
2019-03-21T00:30:31.166Z,101092.22
2019-03-21T00:32:59.513Z,101093.20
2019-03-21T00:35:27.895Z,101087.20
2019-03-21T00:37:56.242Z,101085.91
2019-03-21T00:40:27.626Z,101087.97
2019-03-21T00:42:56.343Z,101084.12
2019-03-21T00:45:24.745Z,101091.06
2019-03-21T00:47:53.156Z,101081.66
2019-03-21T00:50:29.674Z,101088.97
2019-03-21T00:52:58.024Z,101086.66
2019-03-21T00:55:29.498Z,101086.02
2019-03-21T00:57:58.695Z,101086.41
2019-03-21T01:00:36.019Z,101086.88
2019-03-21T01:03:04.962Z,101087.75
2019-03-21T01:05:33.409Z,101077.73
2019-03-21T01:08:01.756Z,101076.48
2019-03-21T01:10:31.776Z,101077.44
2019-03-21T01:13:00.196Z,101068.82
2019-03-21T01:15:28.637Z,101067.94
2019-03-21T01:17:57.050Z,101063.80
2019-03-21T01:20:25.509Z,101068.03
2019-03-21T01:22:53.857Z,101067.87
2019-03-21T01:25:31.346Z,101061.91
2019-03-21T01:27:59.701Z,101054.37
2019-03-21T01:30:28.051Z,101057.50
2019-03-21T01:32:56.791Z,101057.64
2019-03-21T01:35:25.131Z,101056.21
2019-03-21T01:37:53.509Z,101054.92
2019-03-21T01:40:27.829Z,101055.86
2019-03-21T01:42:56.193Z,101057.69
2019-03-21T01:45:25.877Z,101052.56
2019-03-21T01:47:57.190Z,101049.61
2019-03-21T01:50:39.772Z,101050.97
2019-03-21T01:53:08.147Z,101050.00
2019-03-21T01:55:36.493Z,101051.88
2019-03-21T01:58:05.206Z,101051.81
2019-03-21T02:00:39.232Z,101054.41
2019-03-21T02:03:07.679Z,101050.59
2019-03-21T02:05:36.019Z,101050.94
2019-03-21T02:08:04.740Z,101050.84
2019-03-21T02:10:33.361Z,101050.00
2019-03-21T02:13:01.746Z,101047.34
2019-03-21T02:15:30.160Z,101042.17
2019-03-21T02:17:58.534Z,101044.28
2019-03-21T02:20:26.987Z,101043.15
2019-03-21T02:22:55.326Z,101037.11
2019-03-21T02:25:31.432Z,101037.65
2019-03-21T02:27:59.984Z,101030.73
2019-03-21T02:30:37.214Z,101030.19
2019-03-21T02:33:20.686Z,101031.97
2019-03-21T02:35:49.026Z,101027.25
2019-03-21T02:38:17.417Z,101036.82
2019-03-21T02:40:46.902Z,101032.02
2019-03-21T02:43:15.279Z,101034.67
2019-03-21T02:45:43.627Z,101034.11
2019-03-21T02:48:12.001Z,101028.50
2019-03-21T02:50:46.454Z,101028.97
2019-03-21T02:54:11.498Z,101029.73
2019-03-21T02:56:39.911Z,101036.68
2019-03-21T02:59:08.285Z,101029.34
2019-03-21T03:01:36.630Z,101033.71
2019-03-21T03:04:05.880Z,101030.31
2019-03-21T03:06:34.225Z,101035.92
2019-03-21T03:09:02.910Z,101034.64
2019-03-21T03:11:31.346Z,101033.84
2019-03-21T03:13:59.741Z,101031.16
2019-03-21T03:16:28.091Z,101028.17
2019-03-21T03:18:56.482Z,101037.27
2019-03-21T03:21:24.805Z,101035.03
2019-03-21T03:23:53.177Z,101046.31
2019-03-21T03:26:21.519Z,101053.32
2019-03-21T03:28:49.902Z,101050.73
2019-03-21T03:31:18.267Z,101050.34
2019-03-21T03:33:46.638Z,101049.78
2019-03-21T03:36:16.436Z,101051.16
2019-03-21T03:38:44.806Z,101045.59
2019-03-21T03:41:16.261Z,101047.73
2019-03-21T03:43:44.600Z,101050.67
2019-03-21T03:46:12.939Z,101048.50
2019-03-21T03:48:41.321Z,101050.27
2019-03-21T03:51:09.667Z,101056.35
2019-03-21T03:53:38.053Z,101055.92
2019-03-21T03:56:06.635Z,101053.31
2019-03-21T03:58:38.193Z,101049.89
2019-03-21T04:01:06.610Z,101059.88
2019-03-21T04:03:35.158Z,101062.46
2019-03-21T04:06:03.741Z,101061.12
2019-03-21T04:08:32.110Z,101054.61
2019-03-21T04:11:00.533Z,101062.45
2019-03-21T04:13:28.973Z,101059.48
2019-03-21T04:15:57.320Z,101062.08
2019-03-21T04:18:26.064Z,101053.85
2019-03-21T04:21:00.627Z,101059.10
2019-03-21T04:23:29.008Z,101059.98
2019-03-21T04:26:00.746Z,101059.89
2019-03-21T04:28:29.192Z,101057.75
2019-03-21T04:30:57.639Z,101061.73
2019-03-21T04:33:26.120Z,101061.32
2019-03-21T04:35:54.526Z,101057.40
2019-03-21T04:38:23.315Z,101059.95
2019-03-21T04:40:51.656Z,101063.44
2019-03-21T04:43:20.361Z,101061.25
2019-03-21T04:45:48.706Z,101066.06
2019-03-21T04:48:17.152Z,101063.03
2019-03-21T04:50:45.496Z,101071.66
2019-03-21T04:53:13.867Z,101069.92
2019-03-21T04:55:42.213Z,101067.33
2019-03-21T04:58:10.610Z,101074.22
2019-03-21T05:00:44.858Z,101067.80
2019-03-21T05:03:15.639Z,101064.73
2019-03-21T05:05:44.048Z,101069.07
2019-03-21T05:08:12.434Z,101069.88
2019-03-21T05:10:40.770Z,101068.13
2019-03-21T05:13:09.154Z,101072.02
2019-03-21T05:15:43.356Z,101072.07
2019-03-21T05:18:18.008Z,101064.73
2019-03-21T05:20:46.371Z,101072.52
2019-03-21T05:23:14.739Z,101075.14
2019-03-21T05:25:43.088Z,101077.70
2019-03-21T05:28:11.467Z,101073.41
2019-03-21T05:30:48.889Z,101073.38
2019-03-21T05:33:17.271Z,101075.52
2019-03-21T05:35:45.629Z,101079.85
2019-03-21T05:38:14.106Z,101080.30
2019-03-21T05:40:42.493Z,101072.52
2019-03-21T05:43:20.361Z,101080.30
2019-03-21T05:45:48.742Z,101073.38
2019-03-21T05:48:17.087Z,101078.97
2019-03-21T05:50:45.463Z,101082.45
2019-03-21T05:53:13.813Z,101085.05
2019-03-21T05:55:42.189Z,101089.83
2019-03-21T05:58:10.536Z,101086.78
2019-03-21T06:00:42.193Z,101084.59
2019-03-21T06:03:22.281Z,101086.34
2019-03-21T06:06:02.927Z,101089.79
2019-03-21T06:08:34.411Z,101087.19
2019-03-21T06:11:05.312Z,101092.34
2019-03-21T06:13:33.932Z,101091.98
2019-03-21T06:16:09.812Z,101092.34
2019-03-21T06:19:01.975Z,101087.97
2019-03-21T06:21:51.911Z,101091.87
2019-03-21T06:24:38.419Z,101097.07
2019-03-21T06:27:28.408Z,101101.80
2019-03-21T06:29:56.919Z,101102.24
2019-03-21T06:32:26.812Z,101096.12
2019-03-21T06:34:57.571Z,101100.02
2019-03-21T06:37:28.633Z,101101.33
2019-03-21T06:39:56.729Z,101105.63
2019-03-21T06:42:25.144Z,101102.98
2019-03-21T06:44:53.593Z,101097.34
2019-03-21T06:47:21.941Z,101103.36
2019-03-21T06:49:50.315Z,101105.95
2019-03-21T06:52:18.659Z,101105.50
2019-03-21T06:54:47.041Z,101100.70
2019-03-21T06:57:17.024Z,101095.92
2019-03-21T06:59:45.369Z,101097.58
2019-03-21T07:02:13.811Z,101092.86
2019-03-21T07:04:42.228Z,101093.22
2019-03-21T07:07:10.611Z,101096.66
2019-03-21T07:09:38.963Z,101092.30
2019-03-21T07:12:07.407Z,101085.77
2019-03-21T07:14:35.758Z,101090.50
2019-03-21T07:17:04.138Z,101085.65
2019-03-21T07:19:34.106Z,101092.95
2019-03-21T07:22:02.637Z,101092.95
2019-03-21T07:24:31.013Z,101090.74
2019-03-21T07:26:59.422Z,101091.56
2019-03-21T07:29:27.771Z,101093.19
2019-03-21T07:31:56.142Z,101097.80
2019-03-21T07:34:24.490Z,101097.78
2019-03-21T07:36:52.872Z,101089.48
2019-03-21T07:39:21.212Z,101096.30
2019-03-21T07:41:49.590Z,101094.98
2019-03-21T07:44:17.937Z,101094.82
2019-03-21T07:46:46.381Z,101087.30
2019-03-21T07:49:14.734Z,101088.91
2019-03-21T07:51:45.171Z,101089.70
2019-03-21T07:54:13.177Z,101088.36
2019-03-21T07:56:41.552Z,101083.92
2019-03-21T07:59:09.902Z,101089.00
2019-03-21T08:01:39.267Z,101090.23
2019-03-21T08:04:07.733Z,101092.77
2019-03-21T08:06:36.107Z,101084.87
2019-03-21T08:09:06.928Z,101078.23
2019-03-21T08:11:35.789Z,101082.98
2019-03-21T08:14:04.567Z,101079.78
2019-03-21T08:16:33.620Z,101073.53
2019-03-21T08:19:02.203Z,101079.05
2019-03-21T08:21:30.653Z,101076.75
2019-03-21T08:23:59.328Z,101074.98
2019-03-21T08:26:27.774Z,101075.17
2019-03-21T08:28:56.189Z,101074.20
2019-03-21T08:31:24.568Z,101076.69
2019-03-21T08:33:52.982Z,101074.75
2019-03-21T08:36:21.389Z,101078.70
2019-03-21T08:38:49.830Z,101075.45
2019-03-21T08:41:18.178Z,101071.91
2019-03-21T08:43:46.620Z,101073.19
2019-03-21T08:46:15.026Z,101063.06
2019-03-21T08:48:43.817Z,101073.08
2019-03-21T08:51:12.232Z,101065.64
2019-03-21T08:53:40.604Z,101064.12
2019-03-21T08:56:09.085Z,101059.20
2019-03-21T08:58:37.532Z,101062.05
2019-03-21T09:01:07.483Z,101056.84
2019-03-21T09:03:36.375Z,101058.24
2019-03-21T09:06:05.656Z,101061.17
2019-03-21T09:08:34.096Z,101049.20
2019-03-21T09:11:02.439Z,101050.09
2019-03-21T09:13:30.809Z,101049.18
2019-03-21T09:15:59.424Z,101047.15
2019-03-21T09:18:27.797Z,101048.98
2019-03-21T09:20:56.136Z,101052.11
2019-03-21T09:23:24.506Z,101047.94
2019-03-21T09:25:52.954Z,101048.31
2019-03-21T09:28:21.761Z,101042.69
2019-03-21T09:30:50.770Z,101039.23
2019-03-21T09:33:19.335Z,101039.25
2019-03-21T09:35:47.674Z,101040.00
2019-03-21T09:38:16.050Z,101040.18
2019-03-21T09:40:44.464Z,101040.13
2019-03-21T09:43:12.839Z,101040.81
2019-03-21T09:45:41.246Z,101029.66
2019-03-21T09:48:09.851Z,101028.73
2019-03-21T09:50:38.265Z,101027.27
2019-03-21T09:53:06.705Z,101030.20
2019-03-21T09:55:35.124Z,101022.12
2019-03-21T09:58:05.198Z,101025.44
2019-03-21T10:00:35.177Z,101018.50
2019-03-21T10:03:04.684Z,101021.67
2019-03-21T10:05:33.865Z,101023.98
2019-03-21T10:08:02.381Z,101024.99
2019-03-21T10:10:32.230Z,101025.41
2019-03-21T10:13:00.710Z,101015.61
2019-03-21T10:15:29.220Z,101017.94
2019-03-21T10:17:57.629Z,101015.92
2019-03-21T10:20:26.075Z,101010.59
2019-03-21T10:22:54.413Z,101012.19
2019-03-21T10:25:22.784Z,101005.51
2019-03-21T10:27:51.122Z,101003.48
2019-03-21T10:30:34.566Z,101008.05
2019-03-21T10:33:04.141Z,101005.22
2019-03-21T10:35:32.867Z,101003.73
2019-03-21T10:38:01.480Z,100997.86
2019-03-21T10:40:29.852Z,100993.30
2019-03-21T10:42:58.268Z,100997.35
2019-03-21T10:45:26.714Z,100992.62
2019-03-21T10:47:55.295Z,100997.31
2019-03-21T10:50:37.708Z,100991.02
2019-03-21T10:53:06.695Z,100993.13
2019-03-21T10:55:35.242Z,100996.04
2019-03-21T10:58:04.125Z,100990.20
2019-03-21T11:00:32.503Z,100986.06
2019-03-21T11:03:01.134Z,100990.29
2019-03-21T11:05:29.579Z,100974.47
2019-03-21T11:07:57.915Z,100981.72
2019-03-21T11:10:26.290Z,100976.33
2019-03-21T11:12:54.642Z,100979.92
2019-03-21T11:15:23.082Z,100972.91
2019-03-21T11:17:51.893Z,100977.19
2019-03-21T11:20:31.390Z,100972.86
2019-03-21T11:22:59.802Z,100974.24
2019-03-21T11:25:28.248Z,100973.69
2019-03-21T11:27:56.656Z,100976.09
2019-03-21T11:30:35.677Z,100971.35
2019-03-21T11:33:04.572Z,100959.33
2019-03-21T11:35:33.313Z,100964.57
2019-03-21T11:38:01.827Z,100965.03
2019-03-21T11:40:30.454Z,100963.77
2019-03-21T11:42:59.220Z,100963.08
2019-03-21T11:45:27.734Z,100960.50
2019-03-21T11:47:56.090Z,100961.94
2019-03-21T11:50:24.530Z,100951.84
2019-03-21T11:52:52.871Z,100948.23
2019-03-21T11:55:21.501Z,100948.86
2019-03-21T11:57:49.987Z,100942.63
2019-03-21T12:00:18.806Z,100934.19
2019-03-21T12:02:47.159Z,100937.45
2019-03-21T12:05:15.636Z,100932.33
2019-03-21T12:07:44.022Z,100927.70
2019-03-21T12:10:13.149Z,100924.56
2019-03-21T12:12:41.592Z,100921.16
2019-03-21T12:15:11.716Z,100922.81
2019-03-21T12:17:40.056Z,100927.62
2019-03-21T12:20:10.788Z,100919.98
2019-03-21T12:22:39.880Z,100911.87
2019-03-21T12:25:08.934Z,100913.28
2019-03-21T12:27:37.278Z,100909.32
2019-03-21T12:30:08.820Z,100897.23
2019-03-21T12:32:37.165Z,100903.29
2019-03-21T12:35:07.379Z,100900.08
2019-03-21T12:37:35.735Z,100889.45
2019-03-21T12:40:06.826Z,100895.55
2019-03-21T12:42:35.207Z,100895.92
2019-03-21T12:45:05.599Z,100889.94
2019-03-21T12:47:33.984Z,100883.09
2019-03-21T12:50:02.331Z,100883.25
2019-03-21T12:52:41.027Z,100887.52
2019-03-21T12:55:01.160Z,100883.72
2019-03-21T12:57:29.535Z,100879.25
2019-03-21T12:59:57.893Z,100875.22
2019-03-21T13:02:32.204Z,100878.39
2019-03-21T13:04:56.337Z,100875.37
2019-03-21T13:07:24.711Z,100874.95
2019-03-21T13:09:53.057Z,100869.57
2019-03-21T13:12:21.502Z,100868.20
2019-03-21T13:14:49.846Z,100865.52
2019-03-21T13:17:18.220Z,100862.61
2019-03-21T13:19:46.642Z,100857.17
2019-03-21T13:22:15.020Z,100858.25
2019-03-21T13:24:43.360Z,100852.17
2019-03-21T13:27:11.733Z,100854.64
2019-03-21T13:29:40.078Z,100858.78
2019-03-21T13:32:08.452Z,100846.89
2019-03-21T13:34:36.880Z,100845.06
2019-03-21T13:37:05.325Z,100839.75
2019-03-21T13:39:33.673Z,100833.37
2019-03-21T13:42:02.050Z,100835.80
2019-03-21T13:44:33.863Z,100830.62
2019-03-21T13:47:04.379Z,100828.12
2019-03-21T13:49:33.086Z,100831.09
2019-03-21T13:52:01.693Z,100825.11
2019-03-21T13:54:32.195Z,100820.20
2019-03-21T13:57:02.079Z,100818.97
2019-03-21T13:59:31.278Z,100821.23
2019-03-21T14:02:00.118Z,100810.40
2019-03-21T14:04:28.536Z,100807.79
2019-03-21T14:06:57.264Z,100802.81
2019-03-21T14:09:26.846Z,100798.20
2019-03-21T14:11:55.300Z,100798.04
2019-03-21T14:14:24.170Z,100785.95
2019-03-21T14:16:53.177Z,100783.22
2019-03-21T14:19:21.743Z,100783.96
2019-03-21T14:21:50.480Z,100780.55
2019-03-21T14:24:19.452Z,100778.92
2019-03-21T14:26:52.849Z,100773.59
2019-03-21T14:29:21.194Z,100772.24
2019-03-21T14:31:50.171Z,100772.58
2019-03-21T14:34:18.916Z,100766.64
2019-03-21T14:36:48.304Z,100765.81
2019-03-21T14:39:16.955Z,100768.28
2019-03-21T14:41:45.543Z,100769.17
2019-03-21T14:44:18.272Z,100763.73
2019-03-21T14:46:48.714Z,100767.42
2019-03-21T14:49:17.428Z,100765.69
2019-03-21T14:51:45.801Z,100759.56
2019-03-21T14:54:16.320Z,100755.16
2019-03-21T14:56:45.091Z,100757.45
2019-03-21T14:59:13.751Z,100758.84
2019-03-21T15:01:44.032Z,100752.69
2019-03-21T15:04:13.006Z,100747.33
2019-03-21T15:06:41.533Z,100746.69
2019-03-21T15:09:11.716Z,100742.86
2019-03-21T15:11:42.396Z,100738.87
2019-03-21T15:14:10.855Z,100737.09
2019-03-21T15:16:40.468Z,100739.14
2019-03-21T15:19:08.878Z,100738.56
2019-03-21T15:21:37.688Z,100739.56
2019-03-21T15:24:06.547Z,100736.41
2019-03-21T15:26:36.315Z,100735.85
2019-03-21T15:29:06.240Z,100724.70
2019-03-21T15:31:35.180Z,100720.75
2019-03-21T15:34:03.741Z,100722.91
2019-03-21T15:36:32.465Z,100704.00
2019-03-21T15:39:00.885Z,100723.21
2019-03-21T15:41:29.578Z,100727.92
2019-03-21T15:43:58.809Z,100723.27
2019-03-21T15:46:27.639Z,100720.97
2019-03-21T15:48:56.461Z,100713.48
2019-03-21T15:51:27.593Z,100718.33
2019-03-21T15:53:56.727Z,100717.74
2019-03-21T15:56:28.688Z,100723.94
2019-03-21T15:58:57.267Z,100723.78
2019-03-21T16:01:26.186Z,100727.05
2019-03-21T16:03:55.640Z,100722.88
2019-03-21T16:06:23.991Z,100726.30
2019-03-21T16:08:52.616Z,100724.80
2019-03-21T16:11:21.122Z,100726.24
2019-03-21T16:13:52.298Z,100724.80
2019-03-21T16:16:21.612Z,100721.37
2019-03-21T16:18:50.003Z,100722.77
2019-03-21T16:21:20.350Z,100726.05
2019-03-21T16:23:49.251Z,100716.05
2019-03-21T16:26:17.670Z,100721.45
2019-03-21T16:28:46.702Z,100711.86
2019-03-21T16:31:18.583Z,100709.40
2019-03-21T16:33:47.074Z,100707.73
2019-03-21T16:36:15.731Z,100725.95
2019-03-21T16:38:44.612Z,100727.95
2019-03-21T16:41:12.955Z,100723.52
2019-03-21T16:43:42.117Z,100728.59
2019-03-21T16:46:10.473Z,100727.98
2019-03-21T16:48:38.926Z,100729.41
2019-03-21T16:51:07.280Z,100727.97
2019-03-21T16:53:35.656Z,100726.42
2019-03-21T16:56:04.068Z,100731.52
2019-03-21T16:58:32.445Z,100725.92
2019-03-21T17:01:00.791Z,100734.06
2019-03-21T17:03:29.179Z,100736.02
2019-03-21T17:05:57.519Z,100735.37
2019-03-21T17:08:25.918Z,100733.66
2019-03-21T17:10:54.419Z,100733.78
2019-03-21T17:13:23.798Z,100739.28
2019-03-21T17:15:53.120Z,100736.65
2019-03-21T17:18:21.564Z,100736.16
2019-03-21T17:20:49.934Z,100734.80
2019-03-21T17:23:18.326Z,100740.28
2019-03-21T17:25:46.749Z,100738.14
2019-03-21T17:28:15.138Z,100745.30
2019-03-21T17:30:43.495Z,100750.99
2019-03-21T17:33:11.910Z,100752.00
2019-03-21T17:35:40.326Z,100758.06
2019-03-21T17:38:08.709Z,100755.04
2019-03-21T17:40:37.137Z,100758.40
2019-03-21T17:43:05.601Z,100759.40
2019-03-21T17:45:33.954Z,100754.11
2019-03-21T17:48:02.341Z,100757.46
2019-03-21T17:50:30.759Z,100759.90
2019-03-21T17:52:59.217Z,100752.63
2019-03-21T17:55:27.589Z,100761.39
2019-03-21T17:57:55.985Z,100767.73
2019-03-21T18:00:35.115Z,100766.56
2019-03-21T18:03:04.295Z,100768.06
2019-03-21T18:05:33.124Z,100769.55
2019-03-21T18:08:02.285Z,100773.08
2019-03-21T18:10:35.341Z,100767.66
2019-03-21T18:13:04.481Z,100774.52
2019-03-21T18:15:33.743Z,100774.11
2019-03-21T18:18:02.695Z,100766.63
2019-03-21T18:20:39.076Z,100771.84
2019-03-21T18:23:08.836Z,100774.38
2019-03-21T18:25:37.455Z,100778.59
2019-03-21T18:28:08.895Z,100785.91
2019-03-21T18:30:38.157Z,100784.67
2019-03-21T18:33:07.114Z,100788.39
2019-03-21T18:35:35.510Z,100789.02
2019-03-21T18:38:04.504Z,100795.80
2019-03-21T18:40:33.316Z,100790.66
2019-03-21T18:43:04.338Z,100797.37
2019-03-21T18:45:35.609Z,100796.45
2019-03-21T18:48:04.168Z,100797.30
2019-03-21T18:50:32.662Z,100799.08
2019-03-21T18:53:01.274Z,100801.39
2019-03-21T18:55:30.631Z,100801.91
2019-03-21T18:57:59.440Z,100809.50
2019-03-21T19:00:31.310Z,100807.65
2019-03-21T19:03:00.902Z,100810.98
2019-03-21T19:05:30.336Z,100807.61
2019-03-21T19:07:58.899Z,100802.56
2019-03-21T19:10:31.995Z,100810.02
2019-03-21T19:13:00.716Z,100804.59
2019-03-21T19:15:29.085Z,100806.70
2019-03-21T19:17:57.543Z,100801.73
2019-03-21T19:20:26.097Z,100792.66
2019-03-21T19:22:54.772Z,100797.34
2019-03-21T19:25:23.126Z,100796.02
2019-03-21T19:27:51.650Z,100797.99
2019-03-21T19:30:23.431Z,100800.80
2019-03-21T19:32:51.889Z,100798.33
2019-03-21T19:35:20.316Z,100798.89
2019-03-21T19:37:49.204Z,100804.27
2019-03-21T19:40:19.014Z,100798.88
2019-03-21T19:42:47.935Z,100801.25
2019-03-21T19:45:17.832Z,100795.00
2019-03-21T19:47:46.572Z,100790.77
2019-03-21T19:50:17.010Z,100792.88
2019-03-21T19:52:46.538Z,100789.89
2019-03-21T19:55:15.735Z,100788.00
2019-03-21T19:57:44.565Z,100791.45
2019-03-21T20:00:23.723Z,100790.41
2019-03-21T20:02:52.139Z,100792.84
2019-03-21T20:05:20.656Z,100789.59
2019-03-21T20:07:49.179Z,100791.50
2019-03-21T20:10:19.903Z,100792.91
2019-03-21T20:12:49.011Z,100796.95
2019-03-21T20:15:21.420Z,100798.64
2019-03-21T20:17:50.226Z,100801.43
2019-03-21T20:20:19.857Z,100796.28
2019-03-21T20:22:49.365Z,100798.55
2019-03-21T20:25:18.272Z,100801.77
2019-03-21T20:27:54.184Z,100804.09
2019-03-21T20:30:23.100Z,100802.53
2019-03-21T20:32:51.670Z,100804.98
2019-03-21T20:35:20.195Z,100800.42
2019-03-21T20:37:51.182Z,100803.37
2019-03-21T20:40:20.209Z,100802.34
2019-03-21T20:42:48.824Z,100803.50
2019-03-21T20:45:22.194Z,100806.34
2019-03-21T20:47:51.044Z,100813.44
2019-03-21T20:50:19.933Z,100815.67
2019-03-21T20:52:50.821Z,100818.25
2019-03-21T20:55:19.273Z,100810.05
2019-03-21T20:57:48.655Z,100811.20
2019-03-21T21:00:24.511Z,100817.49
2019-03-21T21:02:56.785Z,100818.01
2019-03-21T21:05:27.531Z,100821.51
2019-03-21T21:07:55.952Z,100820.06
2019-03-21T21:10:24.836Z,100817.47
2019-03-21T21:12:53.434Z,100820.91
2019-03-21T21:15:21.817Z,100818.52
2019-03-21T21:17:50.662Z,100818.97
2019-03-21T21:20:20.005Z,100812.94
2019-03-21T21:22:48.426Z,100812.75
2019-03-21T21:25:16.868Z,100807.75
2019-03-21T21:27:49.889Z,100813.92
2019-03-21T21:30:20.303Z,100814.17
2019-03-21T21:32:48.745Z,100813.18
2019-03-21T21:35:17.202Z,100820.39
2019-03-21T21:37:46.207Z,100812.37
2019-03-21T21:40:16.467Z,100814.66
2019-03-21T21:42:44.881Z,100812.66
2019-03-21T21:45:17.947Z,100810.53
2019-03-21T21:47:47.091Z,100814.27
2019-03-21T21:50:16.644Z,100814.30
2019-03-21T21:52:47.137Z,100812.59
2019-03-21T21:55:16.395Z,100820.39
2019-03-21T21:57:44.896Z,100820.64
2019-03-21T22:00:18.828Z,100820.83
2019-03-21T22:02:47.986Z,100814.47
2019-03-21T22:05:17.652Z,100814.44
2019-03-21T22:07:48.050Z,100816.06
2019-03-21T22:10:16.672Z,100812.67
2019-03-21T22:12:45.018Z,100814.76
2019-03-21T22:15:14.549Z,100815.77
2019-03-21T22:17:42.965Z,100810.77
2019-03-21T22:20:14.150Z,100810.59
2019-03-21T22:22:42.809Z,100809.15
2019-03-21T22:25:11.790Z,100813.34
2019-03-21T22:27:40.211Z,100808.38
2019-03-21T22:30:11.792Z,100812.33
2019-03-21T22:32:40.168Z,100808.02
2019-03-21T22:35:08.889Z,100808.50
2019-03-21T22:37:37.301Z,100804.98
2019-03-21T22:40:08.869Z,100802.80
2019-03-21T22:42:37.482Z,100806.63
2019-03-21T22:45:11.090Z,100798.83
2019-03-21T22:47:39.440Z,100792.59
2019-03-21T22:50:10.661Z,100797.72
2019-03-21T22:52:39.088Z,100793.34
2019-03-21T22:55:07.616Z,100792.71
2019-03-21T22:57:35.963Z,100790.75
2019-03-21T23:00:07.548Z,100786.33
2019-03-21T23:02:35.962Z,100789.00
2019-03-21T23:05:05.749Z,100777.12
2019-03-21T23:07:34.102Z,100779.92
2019-03-21T23:10:02.856Z,100775.43
2019-03-21T23:12:31.208Z,100769.27
2019-03-21T23:14:59.588Z,100768.95
2019-03-21T23:17:27.946Z,100770.60
2019-03-21T23:19:56.322Z,100774.98
2019-03-21T23:22:24.737Z,100766.27
2019-03-21T23:24:53.117Z,100774.22
2019-03-21T23:27:21.470Z,100773.10
2019-03-21T23:29:49.848Z,100774.34
2019-03-21T23:32:18.194Z,100773.13
2019-03-21T23:34:46.570Z,100774.12
2019-03-21T23:37:14.920Z,100770.55
2019-03-21T23:39:43.292Z,100758.87
2019-03-21T23:42:11.631Z,100761.02
2019-03-21T23:44:40.016Z,100767.81
2019-03-21T23:47:08.344Z,100767.29
2019-03-21T23:49:36.717Z,100763.42
2019-03-21T23:52:05.132Z,100756.94
2019-03-21T23:54:33.517Z,100764.67
2019-03-21T23:57:04.786Z,100759.70
2019-03-21T23:59:32.061Z,100757.92
